Time;durP1;ratioP1;P1;durP2;ratioP2;P2;SDS_P1;SDS_P2;PMS_P1;PMS_P2;Temp;Humidity;BMP_temperature;BMP_pressure;BME280_temperature;BME280_humidity;BME280_pressure;Samples;Min_cycle;Max_cycle;Signal;HPM_P1;HPM_P2
2022/01/10 00:00:23;;;;;;;76.70;29.43;;;;;;;-3.95;99.99;99587.59;5106960;22;21127;-82
2022/01/10 00:02:53;;;;;;;77.57;29.57;;;;;;;-3.96;100.00;99601.47;5116081;22;20196;-79
2022/01/10 00:05:21;;;;;;;72.50;27.80;;;;;;;-3.98;100.00;99603.34;5083625;22;20199;-79
2022/01/10 00:07:47;;;;;;;73.50;30.80;;;;;;;-3.99;100.00;99604.22;5067145;22;20209;-79
2022/01/10 00:10:14;;;;;;;75.90;30.63;;;;;;;-4.18;100.00;99608.63;5105708;22;20976;-79
2022/01/10 00:12:41;;;;;;;81.57;29.13;;;;;;;-4.01;100.00;99603.47;5103405;22;20202;-80
2022/01/10 00:15:11;;;;;;;78.13;30.07;;;;;;;-4.04;100.00;99614.00;5100442;22;20207;-80
2022/01/10 00:17:38;;;;;;;68.30;29.10;;;;;;;-4.10;100.00;99609.97;5132256;22;20222;-80
2022/01/10 00:20:07;;;;;;;81.20;31.07;;;;;;;-4.14;100.00;99608.41;5102160;22;25513;-77
2022/01/10 00:22:35;;;;;;;78.40;31.77;;;;;;;-4.11;100.00;99612.63;5105461;22;20199;-82
2022/01/10 00:25:02;;;;;;;90.20;32.03;;;;;;;-4.21;100.00;99611.34;5085073;22;20211;-81
2022/01/10 00:27:29;;;;;;;85.57;34.10;;;;;;;-4.33;100.00;99608.44;5113060;22;20206;-80
2022/01/10 00:29:55;;;;;;;96.57;35.90;;;;;;;-4.30;100.00;99617.84;5070163;22;20458;-80
2022/01/10 00:32:25;;;;;;;110.90;40.33;;;;;;;-4.50;100.00;99622.16;5110555;22;21701;-78
2022/01/10 00:34:51;;;;;;;113.70;40.97;;;;;;;-4.62;100.00;99633.13;5102078;22;20229;-80
2022/01/10 00:37:18;;;;;;;114.37;42.60;;;;;;;-4.77;100.00;99634.66;5125546;22;20221;-79
2022/01/10 00:39:47;;;;;;;122.73;42.47;;;;;;;-4.86;100.00;99637.66;5097923;22;20202;-79
2022/01/10 00:42:13;;;;;;;123.90;44.73;;;;;;;-4.99;100.00;99647.72;5114045;22;20397;-80
2022/01/10 00:44:45;;;;;;;131.03;41.33;;;;;;;-4.91;100.00;99648.22;5137314;22;21636;-78
2022/01/10 00:47:12;;;;;;;145.90;43.80;;;;;;;-4.88;100.00;99653.28;5142299;22;20202;-81
2022/01/10 00:49:39;;;;;;;130.93;41.53;;;;;;;-4.89;100.00;99658.56;5145378;22;20210;-79
2022/01/10 00:52:06;;;;;;;172.03;45.07;;;;;;;-5.01;100.00;99656.47;5121278;22;20202;-80
2022/01/10 00:54:33;;;;;;;198.63;46.27;;;;;;;-5.07;100.00;99664.53;5125032;22;20267;-79
2022/01/10 00:56:59;;;;;;;146.63;43.93;;;;;;;-5.06;100.00;99668.81;5110925;22;20725;-79
2022/01/10 00:59:26;;;;;;;165.67;44.93;;;;;;;-5.02;100.00;99667.78;5129503;22;20208;-80
2022/01/10 01:01:52;;;;;;;139.43;44.07;;;;;;;-5.04;100.00;99667.81;5141350;22;22320;-79
2022/01/10 01:04:20;;;;;;;141.93;44.97;;;;;;;-5.05;100.00;99666.16;5126767;22;20265;-79
2022/01/10 01:06:48;;;;;;;151.17;45.50;;;;;;;-4.99;100.00;99680.59;5110554;22;20359;-79
2022/01/10 01:09:22;;;;;;;155.33;46.40;;;;;;;-5.02;100.00;99686.75;5125525;22;20208;-79
2022/01/10 01:17:26;;;;;;;158.27;44.07;;;;;;;-4.89;100.00;99707.84;5117814;22;20197;-78
2022/01/10 01:25:09;;;;;;;130.33;40.50;;;;;;;-4.93;100.00;99719.25;5137217;22;20362;-80
2022/01/10 01:27:36;;;;;;;118.53;39.37;;;;;;;-4.91;100.00;99725.25;5103441;22;20306;-79
2022/01/10 01:30:04;;;;;;;132.20;39.33;;;;;;;-4.91;100.00;99733.03;5081429;22;20283;-79
2022/01/10 01:32:31;;;;;;;116.43;36.93;;;;;;;-4.80;100.00;99729.94;5124386;22;20257;-77
2022/01/10 01:35:03;;;;;;;128.03;39.10;;;;;;;-4.97;100.00;99725.47;5127416;22;23183;-81
2022/01/10 01:37:30;;;;;;;121.80;37.70;;;;;;;-4.86;100.00;99738.84;5106115;22;20224;-81
2022/01/10 01:39:57;;;;;;;128.43;38.67;;;;;;;-4.80;100.00;99732.53;5094173;22;20206;-80
2022/01/10 01:44:56;;;;;;;140.93;41.30;;;;;;;-4.69;100.00;99738.97;5105305;22;20202;-79
2022/01/10 01:47:23;;;;;;;168.57;42.40;;;;;;;-4.80;100.00;99736.00;5131591;22;21608;-83
2022/01/10 01:49:50;;;;;;;142.00;41.33;;;;;;;-4.82;100.00;99730.03;5107364;22;20601;-80
2022/01/10 01:52:17;;;;;;;151.07;40.77;;;;;;;-4.80;100.00;99733.41;5126717;22;20202;-79
2022/01/10 01:54:43;;;;;;;140.33;40.43;;;;;;;-4.69;100.00;99731.19;5110178;22;20267;-80
2022/01/10 01:57:11;;;;;;;140.90;41.13;;;;;;;-4.56;100.00;99736.69;5107629;22;20203;-81
2022/01/10 01:59:38;;;;;;;147.17;40.60;;;;;;;-4.52;100.00;99745.19;5133431;22;20200;-81
2022/01/10 02:02:05;;;;;;;132.00;40.43;;;;;;;-4.63;100.00;99750.03;5096096;22;20214;-79
2022/01/10 02:04:32;;;;;;;146.83;40.33;;;;;;;-4.68;100.00;99747.63;5097057;22;25531;-83
2022/01/10 02:06:59;;;;;;;136.80;39.53;;;;;;;-4.68;100.00;99751.06;5125604;22;20206;-81
2022/01/10 02:09:26;;;;;;;143.53;39.13;;;;;;;-4.61;100.00;99753.38;5139088;22;20213;-79
2022/01/10 02:11:54;;;;;;;138.63;39.83;;;;;;;-4.63;100.00;99757.81;5103587;22;20293;-80
2022/01/10 02:14:21;;;;;;;144.87;41.97;;;;;;;-4.66;100.00;99758.75;5131407;22;20217;-82
2022/01/10 02:16:54;;;;;;;143.87;41.33;;;;;;;-4.62;100.00;99755.13;5111377;22;20209;-79
2022/01/10 02:19:23;;;;;;;141.40;40.03;;;;;;;-4.62;100.00;99756.88;5121705;22;20211;-81
2022/01/10 02:21:50;;;;;;;131.47;40.60;;;;;;;-4.53;100.00;99770.31;5115018;22;20344;-79
2022/01/10 02:24:17;;;;;;;116.37;36.00;;;;;;;-4.39;100.00;99768.88;5089273;22;20203;-79
2022/01/10 02:26:48;;;;;;;109.67;34.23;;;;;;;-4.44;100.00;99766.47;5135709;22;20738;-78
2022/01/10 02:29:15;;;;;;;99.17;33.00;;;;;;;-4.47;100.00;99779.59;5142594;22;20492;-80
2022/01/10 02:31:42;;;;;;;135.20;33.50;;;;;;;-4.51;100.00;99785.84;5115472;22;20202;-79
2022/01/10 02:34:09;;;;;;;125.80;33.33;;;;;;;-4.47;100.00;99788.22;5103330;22;21434;-80
2022/01/10 02:36:36;;;;;;;99.63;31.53;;;;;;;-4.40;100.00;99794.00;5135203;22;20379;-78
2022/01/10 02:39:08;;;;;;;136.43;32.70;;;;;;;-4.40;100.00;99794.00;5112104;22;21500;-82
2022/01/10 02:41:38;;;;;;;156.67;34.23;;;;;;;-4.47;100.00;99800.38;5133046;22;20209;-79
2022/01/10 02:44:07;;;;;;;108.77;31.00;;;;;;;-4.40;100.00;99804.41;5104390;22;20341;-84
2022/01/10 02:46:36;;;;;;;105.37;32.83;;;;;;;-4.36;100.00;99802.50;5122228;22;22863;-82
2022/01/10 02:49:14;;;;;;;97.90;31.63;;;;;;;-4.47;100.00;99809.00;5142498;22;20228;-79
2022/01/10 02:51:41;;;;;;;107.47;31.93;;;;;;;-4.40;100.00;99803.53;5099233;22;22838;-80
2022/01/10 02:54:08;;;;;;;104.30;30.27;;;;;;;-4.42;100.00;99811.41;5120274;22;20253;-81
2022/01/10 02:56:45;;;;;;;101.33;30.40;;;;;;;-4.39;100.00;99816.44;5137863;22;22034;-79
2022/01/10 02:59:11;;;;;;;99.53;30.03;;;;;;;-4.36;100.00;99818.91;5133453;22;20235;-78
2022/01/10 03:01:38;;;;;;;101.67;31.33;;;;;;;-4.22;100.00;99827.88;5086715;22;20202;-77
2022/01/10 03:04:05;;;;;;;106.07;33.40;;;;;;;-4.28;100.00;99829.81;5093278;22;22032;-82
2022/01/10 03:06:32;;;;;;;113.87;33.13;;;;;;;-4.23;100.00;99831.38;5119539;22;20206;-78
2022/01/10 03:09:05;;;;;;;103.80;32.07;;;;;;;-4.08;100.00;99841.09;5102427;22;20209;-79
2022/01/10 03:11:33;;;;;;;105.67;32.57;;;;;;;-3.95;100.00;99841.41;5108182;22;20631;-79
2022/01/10 03:14:00;;;;;;;113.80;32.00;;;;;;;-3.92;100.00;99852.50;5109190;22;21722;-82
2022/01/10 03:16:27;;;;;;;120.93;35.07;;;;;;;-3.95;100.00;99857.84;5126596;22;20213;-80
2022/01/10 03:18:54;;;;;;;119.47;35.13;;;;;;;-3.92;100.00;99857.72;5118590;22;22885;-79
2022/01/10 03:21:20;;;;;;;122.17;34.97;;;;;;;-3.91;100.00;99869.81;5114165;22;20261;-79
2022/01/10 03:23:51;;;;;;;115.93;31.70;;;;;;;-3.78;100.00;99874.44;5095543;22;20202;-79
2022/01/10 03:26:18;;;;;;;113.50;32.80;;;;;;;-3.89;100.00;99875.75;5118838;22;20214;-78
2022/01/10 03:28:45;;;;;;;110.97;31.30;;;;;;;-3.95;100.00;99875.19;5121605;22;20206;-80
2022/01/10 03:31:12;;;;;;;118.40;35.27;;;;;;;-3.87;100.00;99884.34;5095542;22;20205;-78
2022/01/10 03:33:39;;;;;;;105.10;31.40;;;;;;;-3.80;100.00;99886.66;5125123;22;20402;-79
2022/01/10 03:36:05;;;;;;;103.07;32.20;;;;;;;-3.74;100.00;99887.25;5120083;22;20213;-78
2022/01/10 03:38:34;;;;;;;115.90;33.67;;;;;;;-3.70;100.00;99888.81;5153644;22;20241;-78
2022/01/10 03:41:00;;;;;;;94.17;30.47;;;;;;;-3.59;100.00;99896.09;5123515;22;20202;-79
2022/01/10 03:43:27;;;;;;;95.90;31.57;;;;;;;-3.54;100.00;99908.91;5101462;22;20684;-81
2022/01/10 03:45:54;;;;;;;96.13;31.53;;;;;;;-3.57;100.00;99909.06;5101805;22;20205;-80
2022/01/10 03:48:21;;;;;;;92.70;30.00;;;;;;;-3.72;100.00;99905.34;5137955;22;20403;-80
2022/01/10 03:50:47;;;;;;;94.20;29.43;;;;;;;-3.64;100.00;99908.47;5102029;22;20298;-79
2022/01/10 03:53:14;;;;;;;91.03;29.47;;;;;;;-3.65;100.00;99917.22;5114303;22;20203;-81
2022/01/10 03:55:40;;;;;;;88.57;28.23;;;;;;;-3.69;100.00;99919.09;5126145;22;20202;-79
2022/01/10 03:58:07;;;;;;;75.37;27.53;;;;;;;-3.57;100.00;99914.25;5101666;22;20202;-78
2022/01/10 04:00:33;;;;;;;75.40;25.20;;;;;;;-3.59;100.00;99922.13;5122387;22;20210;-81
2022/01/10 04:03:05;;;;;;;68.80;24.10;;;;;;;-3.64;100.00;99919.72;5120870;22;20206;-80
2022/01/10 04:05:34;;;;;;;64.97;23.10;;;;;;;-3.61;100.00;99931.72;5113550;22;20271;-81
2022/01/10 04:08:02;;;;;;;67.77;22.40;;;;;;;-3.64;100.00;99934.47;5128010;22;22373;-80
2022/01/10 04:10:28;;;;;;;60.33;22.57;;;;;;;-3.53;100.00;99932.25;5119054;22;20680;-78
2022/01/10 04:12:55;;;;;;;63.53;22.77;;;;;;;-3.52;100.00;99933.94;5140597;22;23509;-79
2022/01/10 04:15:21;;;;;;;57.00;21.20;;;;;;;-3.43;100.00;99940.47;5118608;22;20260;-79
2022/01/10 04:17:54;;;;;;;59.93;22.23;;;;;;;-3.46;100.00;99940.63;5110622;22;20745;-80
2022/01/10 04:20:21;;;;;;;62.77;22.90;;;;;;;-3.61;100.00;99944.72;5121592;22;20202;-80
2022/01/10 04:22:48;;;;;;;52.53;20.40;;;;;;;-3.42;100.00;99949.97;5120337;22;20357;-81
2022/01/10 04:25:14;;;;;;;59.17;21.97;;;;;;;-3.42;100.00;99949.97;5142286;22;20201;-80
2022/01/10 04:27:41;;;;;;;62.23;22.50;;;;;;;-3.46;100.00;99943.22;5117463;22;21231;-80
2022/01/10 04:30:08;;;;;;;54.90;21.93;;;;;;;-3.38;100.00;99951.53;5089988;22;20207;-77
2022/01/10 04:32:34;;;;;;;54.40;20.47;;;;;;;-3.42;100.00;99961.25;5148070;22;20237;-81
2022/01/10 04:35:01;;;;;;;59.77;22.50;;;;;;;-3.45;100.00;99965.72;5084742;22;20217;-78
2022/01/10 04:37:28;;;;;;;62.40;22.57;;;;;;;-3.47;100.00;99960.56;5099259;22;20997;-84
2022/01/10 04:39:54;;;;;;;56.83;21.00;;;;;;;-3.58;100.00;99959.34;5107655;22;20256;-81
2022/01/10 04:42:21;;;;;;;55.33;22.17;;;;;;;-3.61;100.00;99965.53;5116788;22;20212;-81
2022/01/10 04:44:49;;;;;;;60.23;22.77;;;;;;;-3.54;100.00;99972.16;5089131;22;20217;-79
2022/01/10 04:47:16;;;;;;;64.83;22.83;;;;;;;-3.49;100.00;99972.81;5090427;22;20202;-80
2022/01/10 04:50:07;;;;;;;63.17;22.07;;;;;;;-3.51;100.00;99987.66;5054363;22;20198;-81
2022/01/10 04:52:33;;;;;;;60.67;22.60;;;;;;;-3.49;100.00;99987.56;5105234;22;20253;-80
2022/01/10 04:55:00;;;;;;;63.63;22.10;;;;;;;-3.37;100.00;99999.19;5094474;22;20531;-80
2022/01/10 04:57:27;;;;;;;64.70;23.43;;;;;;;-3.41;100.00;99993.28;5090073;22;22935;-79
2022/01/10 04:59:54;;;;;;;66.23;23.10;;;;;;;-3.26;100.00;99999.56;5095297;22;21207;-79
2022/01/10 05:02:21;;;;;;;60.83;22.13;;;;;;;-3.14;100.00;100000.78;5096761;22;21356;-81
2022/01/10 05:04:47;;;;;;;58.37;22.57;;;;;;;-3.03;100.00;100001.97;5117031;22;20198;-78
2022/01/10 05:07:14;;;;;;;59.97;22.10;;;;;;;-3.02;100.00;100006.28;5089223;22;21571;-79
2022/01/10 05:09:40;;;;;;;58.77;22.60;;;;;;;-3.00;100.00;100012.25;5099792;22;20199;-81
2022/01/10 05:12:08;;;;;;;59.07;21.90;;;;;;;-3.03;100.00;100020.19;5093499;22;22648;-79
2022/01/10 05:14:34;;;;;;;56.80;22.03;;;;;;;-3.00;100.00;100024.41;5103015;22;20206;-78
2022/01/10 05:17:01;;;;;;;63.13;22.53;;;;;;;-3.07;100.00;100018.63;5078678;22;20208;-77
2022/01/10 05:19:28;;;;;;;61.10;22.63;;;;;;;-2.89;100.00;100029.16;5086904;22;20502;-80
2022/01/10 05:21:56;;;;;;;55.00;21.60;;;;;;;-2.88;100.00;100030.81;5108389;22;20290;-80
2022/01/10 05:24:22;;;;;;;57.13;21.80;;;;;;;-2.91;100.00;100034.41;5126208;22;20265;-79
2022/01/10 05:26:48;;;;;;;62.43;22.03;;;;;;;-2.87;100.00;100038.56;5079607;22;21513;-81
2022/01/10 05:29:16;;;;;;;60.30;22.50;;;;;;;-2.86;100.00;100052.44;5090964;22;20203;-81
2022/01/10 05:31:42;;;;;;;66.63;23.50;;;;;;;-2.91;100.00;100049.19;5087209;22;20207;-78
2022/01/10 05:34:09;;;;;;;68.27;24.27;;;;;;;-3.06;100.00;100059.38;5101024;22;20207;-79
2022/01/10 05:36:35;;;;;;;65.53;24.57;;;;;;;-3.01;100.00;100065.22;5138205;22;20201;-81
2022/01/10 05:39:02;;;;;;;58.63;23.70;;;;;;;-3.03;100.00;100061.84;5099842;22;20297;-79
2022/01/10 05:41:31;;;;;;;69.87;24.50;;;;;;;-3.05;100.00;100074.06;5093517;22;21559;-76
2022/01/10 05:43:58;;;;;;;69.27;24.47;;;;;;;-3.03;100.00;100071.41;5109280;22;20211;-81
2022/01/10 05:46:25;;;;;;;64.83;23.53;;;;;;;-3.02;100.00;100067.88;5075662;22;20200;-78
2022/01/10 05:48:54;;;;;;;62.70;23.30;;;;;;;-3.01;100.00;100066.97;5101363;22;20199;-79
2022/01/10 05:51:20;;;;;;;72.30;25.17;;;;;;;-2.95;100.00;100071.94;5071607;22;20250;-79
2022/01/10 05:53:48;;;;;;;69.30;24.27;;;;;;;-3.02;100.00;100079.16;5088640;22;20211;-79
2022/01/10 05:56:15;;;;;;;75.63;25.63;;;;;;;-3.06;100.00;100080.19;5070956;22;20204;-80
2022/01/10 05:58:42;;;;;;;79.33;27.10;;;;;;;-3.16;100.00;100091.06;5054153;22;21462;-77
2022/01/10 06:01:08;;;;;;;80.23;27.23;;;;;;;-3.15;100.00;100088.41;5117730;22;20332;-78
2022/01/10 06:03:35;;;;;;;84.97;25.83;;;;;;;-3.16;100.00;100089.34;5106744;22;20548;-77
2022/01/10 06:06:01;;;;;;;92.00;28.60;;;;;;;-3.19;100.00;100098.09;5082657;22;22895;-80
2022/01/10 06:08:28;;;;;;;87.23;28.40;;;;;;;-3.25;100.00;100100.97;5100524;22;20203;-78
2022/01/10 06:10:54;;;;;;;87.13;29.60;;;;;;;-3.26;100.00;100108.84;5092265;22;20562;-80
2022/01/10 06:13:21;;;;;;;91.03;28.17;;;;;;;-3.17;100.00;100105.00;5074164;22;22223;-77
2022/01/10 06:15:48;;;;;;;82.13;27.67;;;;;;;-3.04;100.00;100109.63;5086809;22;22608;-78
2022/01/10 06:18:14;;;;;;;78.50;27.67;;;;;;;-2.94;100.00;100111.81;5092094;22;21607;-78
2022/01/10 06:20:41;;;;;;;82.57;27.67;;;;;;;-3.08;100.00;100125.44;5096368;22;20205;-75
2022/01/10 06:23:09;;;;;;;96.10;28.30;;;;;;;-3.15;100.00;100129.22;5111846;22;20311;-76
2022/01/10 06:25:36;;;;;;;86.77;28.50;;;;;;;-3.15;100.00;100137.84;5092695;22;20274;-76
2022/01/10 06:28:02;;;;;;;94.40;28.33;;;;;;;-3.16;100.00;100138.78;5055778;22;20202;-77
2022/01/10 06:30:29;;;;;;;94.27;29.50;;;;;;;-3.17;100.00;100141.44;5095667;22;22111;-77
2022/01/10 06:32:55;;;;;;;93.47;30.03;;;;;;;-3.07;100.00;100156.56;5111292;22;26652;-76
2022/01/10 06:35:22;;;;;;;95.77;31.77;;;;;;;-3.16;100.00;100163.94;5099519;22;20354;-76
2022/01/10 06:37:49;;;;;;;95.20;31.33;;;;;;;-3.17;100.00;100173.50;5089515;22;23374;-78
2022/01/10 06:40:16;;;;;;;98.33;32.53;;;;;;;-3.16;100.00;100174.34;5123621;22;20478;-79
2022/01/10 06:42:43;;;;;;;98.87;32.27;;;;;;;-3.21;100.00;100178.00;5094094;22;23335;-76
2022/01/10 06:45:10;;;;;;;104.53;33.97;;;;;;;-3.20;100.00;100181.44;5099414;22;20210;-76
2022/01/10 06:47:37;;;;;;;110.70;33.27;;;;;;;-3.30;100.00;100193.13;5088648;22;20475;-77
2022/01/10 06:50:05;;;;;;;111.77;35.13;;;;;;;-3.19;100.00;100193.53;5080468;22;20243;-79
2022/01/10 06:52:35;;;;;;;122.80;36.33;;;;;;;-3.23;100.00;100200.63;5088660;22;20273;-76
2022/01/10 06:55:02;;;;;;;112.37;35.53;;;;;;;-3.13;100.00;100211.50;5115728;22;20201;-77
2022/01/10 06:57:28;;;;;;;110.97;35.93;;;;;;;-3.10;100.00;100213.97;5100468;22;20202;-77
2022/01/10 06:59:55;;;;;;;113.93;36.87;;;;;;;-3.05;100.00;100214.63;5095570;22;20236;-79
2022/01/10 07:02:22;;;;;;;111.90;35.23;;;;;;;-2.98;100.00;100216.06;5111646;22;23752;-77
2022/01/10 07:04:49;;;;;;;98.97;33.47;;;;;;;-3.05;100.00;100214.63;5095076;22;20208;-80
2022/01/10 07:07:15;;;;;;;117.37;35.80;;;;;;;-3.18;100.00;100226.47;5118308;22;20205;-77
2022/01/10 07:09:41;;;;;;;112.73;36.73;;;;;;;-3.22;100.00;100233.53;5095053;22;21638;-78
2022/01/10 07:12:09;;;;;;;115.10;37.43;;;;;;;-3.14;100.00;100233.22;5095339;22;20211;-76
2022/01/10 07:14:36;;;;;;;118.40;35.23;;;;;;;-2.97;100.00;100237.75;5121586;22;20432;-77
2022/01/10 07:17:04;;;;;;;114.83;34.80;;;;;;;-2.84;100.00;100248.47;5118790;22;20340;-78
2022/01/10 07:19:31;;;;;;;108.43;34.40;;;;;;;-2.93;100.00;100254.06;5123333;22;20201;-76
2022/01/10 07:21:57;;;;;;;105.67;35.13;;;;;;;-2.88;100.00;100250.38;5139143;22;21131;-78
2022/01/10 07:24:24;;;;;;;99.00;33.77;;;;;;;-2.85;100.00;100257.22;5123675;22;21683;-77
2022/01/10 07:26:51;;;;;;;108.10;34.97;;;;;;;-2.80;100.00;100261.31;5095362;22;20214;-77
2022/01/10 07:29:18;;;;;;;115.03;36.43;;;;;;;-2.69;100.00;100263.47;5083979;22;20210;-75
2022/01/10 07:31:44;;;;;;;108.90;34.37;;;;;;;-2.80;100.00;100260.47;5102655;22;20860;-77
2022/01/10 07:34:14;;;;;;;103.53;35.67;;;;;;;-2.85;100.00;100272.84;5104765;22;20267;-78
2022/01/10 07:36:41;;;;;;;110.20;35.70;;;;;;;-2.82;100.00;100272.69;5121221;22;21306;-76
2022/01/10 07:39:08;;;;;;;110.03;35.93;;;;;;;-2.74;100.00;100283.63;5152900;22;22031;-77
2022/01/10 07:41:35;;;;;;;115.87;35.53;;;;;;;-2.84;100.00;100279.72;5106579;22;26335;-77
2022/01/10 07:44:01;;;;;;;112.67;37.60;;;;;;;-2.90;100.00;100286.03;5192315;22;20206;-77
2022/01/10 07:46:28;;;;;;;101.73;35.27;;;;;;;-2.84;100.00;100290.97;5189329;22;20285;-76
2022/01/10 07:48:55;;;;;;;122.47;37.60;;;;;;;-2.83;100.00;100291.84;5159402;23;20202;-77
2022/01/10 07:51:26;;;;;;;115.70;37.03;;;;;;;-2.81;100.00;100303.03;5207279;22;20209;-77
2022/01/10 07:53:53;;;;;;;101.97;34.70;;;;;;;-2.76;100.00;100298.50;5151101;22;20631;-76
2022/01/10 07:56:20;;;;;;;108.33;35.10;;;;;;;-2.65;100.00;100306.69;5156973;22;20695;-76
2022/01/10 07:58:50;;;;;;;111.87;35.70;;;;;;;-2.70;100.00;100303.44;5146031;22;21757;-78
2022/01/10 08:01:19;;;;;;;105.93;35.23;;;;;;;-2.69;100.00;100317.28;5095634;22;21114;-77
2022/01/10 08:03:47;;;;;;;105.10;35.33;;;;;;;-2.79;100.00;100322.03;5174867;22;20213;-78
2022/01/10 08:06:14;;;;;;;104.93;35.07;;;;;;;-2.83;100.00;100321.34;5173350;22;22675;-76
2022/01/10 08:08:40;;;;;;;105.17;37.27;;;;;;;-2.91;100.00;100323.38;5178700;22;20207;-76
2022/01/10 08:11:10;;;;;;;104.83;36.27;;;;;;;-2.81;100.00;100334.28;5212240;22;21180;-77
2022/01/10 08:13:37;;;;;;;98.43;34.57;;;;;;;-2.78;100.00;100332.41;5119656;22;20198;-75
2022/01/10 08:16:04;;;;;;;95.90;33.50;;;;;;;-2.77;100.00;100338.44;5136041;22;20275;-77
2022/01/10 08:18:33;;;;;;;94.20;33.17;;;;;;;-2.78;100.00;100344.59;5158732;22;22005;-77
2022/01/10 08:21:01;;;;;;;93.33;33.47;;;;;;;-2.81;100.00;100348.16;5112409;23;20285;-77
2022/01/10 08:23:28;;;;;;;86.63;31.60;;;;;;;-2.80;100.00;100360.25;5107993;22;20369;-76
2022/01/10 08:25:55;;;;;;;92.97;32.23;;;;;;;-2.90;100.00;100358.94;5144019;22;21900;-79
2022/01/10 08:28:22;;;;;;;84.03;29.67;;;;;;;-2.88;100.00;100364.06;5165452;22;25368;-76
2022/01/10 08:30:49;;;;;;;90.07;31.57;;;;;;;-2.81;100.00;100362.91;5161244;22;21569;-77
2022/01/10 08:33:16;;;;;;;82.57;30.17;;;;;;;-2.85;100.00;100372.63;5201747;22;21318;-80
2022/01/10 08:35:43;;;;;;;80.47;29.47;;;;;;;-2.87;100.00;100374.44;5150877;22;20207;-79
2022/01/10 08:38:10;;;;;;;85.87;31.20;;;;;;;-2.81;100.00;100378.53;5151163;22;22315;-78
2022/01/10 08:40:36;;;;;;;81.70;29.57;;;;;;;-2.89;100.00;100384.06;5171779;22;20393;-76
2022/01/10 08:43:09;;;;;;;90.83;28.87;;;;;;;-2.93;100.00;100389.44;5194029;22;22852;-77
2022/01/10 08:45:39;;;;;;;76.53;29.27;;;;;;;-2.96;100.00;100390.41;5146482;22;20270;-77
2022/01/10 08:48:16;;;;;;;81.93;29.10;;;;;;;-2.90;100.00;100391.91;5166477;22;20203;-79
2022/01/10 08:50:42;;;;;;;87.43;31.03;;;;;;;-2.92;100.00;100396.38;5114250;22;21135;-79
2022/01/10 08:53:11;;;;;;;83.37;29.33;;;;;;;-2.86;100.00;100401.31;5166839;22;21623;-77
2022/01/10 08:55:38;;;;;;;82.73;28.53;;;;;;;-2.79;100.00;100403.63;5127610;22;22980;-79
2022/01/10 08:58:05;;;;;;;78.10;29.13;;;;;;;-2.76;100.00;100411.31;5191395;22;20209;-77
2022/01/10 09:00:32;;;;;;;85.47;28.47;;;;;;;-2.78;100.00;100414.91;5162031;22;20274;-77
2022/01/10 09:03:01;;;;;;;92.00;29.80;;;;;;;-2.78;100.00;100410.53;5106514;22;20214;-78
2022/01/10 09:05:29;;;;;;;77.80;27.17;;;;;;;-2.77;100.00;100406.16;5087810;22;20207;-78
2022/01/10 09:08:01;;;;;;;71.90;26.37;;;;;;;-2.73;99.66;100417.31;5133033;22;20202;-78
2022/01/10 09:10:28;;;;;;;72.40;25.33;;;;;;;-2.75;99.22;100419.97;5131288;22;20509;-77
2022/01/10 09:12:58;;;;;;;73.00;24.87;;;;;;;-2.77;99.81;100422.63;5130665;22;21627;-77
2022/01/10 09:15:25;;;;;;;70.80;26.10;;;;;;;-2.71;99.57;100426.75;5145016;22;20979;-76
2022/01/10 09:17:52;;;;;;;70.30;25.23;;;;;;;-2.53;99.31;100429.53;5109968;22;22168;-80
2022/01/10 09:20:19;;;;;;;80.57;26.10;;;;;;;-2.46;98.62;100438.78;5093585;22;21538;-79
2022/01/10 09:22:46;;;;;;;64.13;23.90;;;;;;;-2.59;98.04;100446.25;5156106;22;20380;-75
2022/01/10 09:25:13;;;;;;;68.97;24.90;;;;;;;-2.55;97.33;100447.84;5130881;22;20212;-75
2022/01/10 09:27:39;;;;;;;71.43;24.70;;;;;;;-2.43;97.11;100446.50;5091417;22;22743;-77
2022/01/10 09:30:07;;;;;;;66.97;23.57;;;;;;;-2.45;96.29;100448.31;5142335;22;22086;-77
2022/01/10 09:32:34;;;;;;;74.87;24.67;;;;;;;-2.39;95.75;100458.47;5097681;22;21080;-77
2022/01/10 09:35:00;;;;;;;66.73;24.83;;;;;;;-2.37;95.54;100446.22;5139490;22;20214;-74
2022/01/10 09:37:27;;;;;;;68.57;24.37;;;;;;;-2.33;95.40;100451.25;5121297;22;21405;-75
2022/01/10 09:39:58;;;;;;;66.77;22.53;;;;;;;-2.18;94.40;100452.41;5107617;22;20207;-76
2022/01/10 09:42:25;;;;;;;67.00;23.57;;;;;;;-1.97;93.30;100449.78;5101881;22;25428;-74
2022/01/10 09:44:52;;;;;;;74.53;25.60;;;;;;;-1.87;92.38;100455.44;5110965;22;20207;-78
2022/01/10 09:47:19;;;;;;;64.17;22.87;;;;;;;-1.37;90.52;100460.25;5151826;22;20211;-74
2022/01/10 09:49:45;;;;;;;73.13;24.07;;;;;;;-1.25;88.03;100464.91;5084924;22;20202;-76
2022/01/10 09:52:15;;;;;;;61.43;21.60;;;;;;;-0.99;86.62;100468.94;5147076;22;20212;-76
2022/01/10 09:54:42;;;;;;;59.40;22.37;;;;;;;-0.62;85.05;100467.22;5156495;22;20208;-75
2022/01/10 09:57:08;;;;;;;54.20;21.67;;;;;;;-0.22;80.85;100473.13;5258906;22;20625;-75
2022/01/10 09:59:36;;;;;;;58.40;20.83;;;;;;;0.05;79.42;100477.91;5102055;22;20793;-73
2022/01/10 10:02:05;;;;;;;57.60;21.53;;;;;;;0.14;77.92;100485.31;5185299;22;20286;-76
2022/01/10 10:04:36;;;;;;;57.70;21.57;;;;;;;0.36;77.32;100496.38;5164884;22;21746;-74
2022/01/10 10:07:07;;;;;;;55.10;20.47;;;;;;;0.38;75.73;100497.16;5107197;22;21230;-75
2022/01/10 10:09:34;;;;;;;52.53;20.90;;;;;;;0.40;76.20;100489.22;5111616;22;20202;-75
2022/01/10 10:12:03;;;;;;;59.57;21.17;;;;;;;0.55;75.11;100498.91;5106494;22;20207;-77
2022/01/10 10:14:31;;;;;;;52.30;20.50;;;;;;;0.44;75.04;100506.44;5121346;22;20203;-77
2022/01/10 10:17:06;;;;;;;52.70;20.17;;;;;;;0.15;76.06;100500.94;5193106;22;25652;-78
2022/01/10 10:19:42;;;;;;;52.33;20.23;;;;;;;0.08;75.83;100506.56;5364465;22;20671;-79
2022/01/10 10:22:14;;;;;;;53.77;19.57;;;;;;;0.28;76.24;100514.25;5115203;22;20743;-77
2022/01/10 10:24:42;;;;;;;58.87;20.23;;;;;;;0.27;75.60;100512.56;5130978;22;21943;-79
2022/01/10 10:27:09;;;;;;;55.90;20.70;;;;;;;0.92;74.02;100514.47;5158416;22;20214;-79
2022/01/10 10:29:38;;;;;;;55.93;19.77;;;;;;;0.65;72.04;100514.13;5122332;22;20202;-77
2022/01/10 10:32:05;;;;;;;49.30;18.97;;;;;;;0.41;73.24;100520.53;5111189;22;20207;-79
2022/01/10 10:34:33;;;;;;;52.53;19.50;;;;;;;0.15;74.14;100518.41;5121442;22;20763;-80
2022/01/10 10:37:12;;;;;;;53.97;20.53;;;;;;;0.38;73.86;100525.94;5143352;22;20202;-80
2022/01/10 10:39:43;;;;;;;45.07;17.60;;;;;;;0.43;72.35;100525.72;5139775;22;21326;-79
2022/01/10 10:42:14;;;;;;;51.37;19.27;;;;;;;0.15;73.19;100531.50;5151637;22;20206;-77
2022/01/10 10:44:42;;;;;;;51.43;19.33;;;;;;;0.04;73.46;100536.41;5141959;22;20202;-77
2022/01/10 10:47:11;;;;;;;50.67;18.93;;;;;;;-0.55;75.47;100527.91;5161753;22;20206;-81
2022/01/10 10:49:41;;;;;;;51.27;20.33;;;;;;;-0.75;77.36;100532.28;5082511;22;20369;-79
2022/01/10 10:52:09;;;;;;;52.93;19.07;;;;;;;-0.75;78.15;100534.03;5113787;22;22370;-77
2022/01/10 10:54:37;;;;;;;49.10;18.00;;;;;;;-0.75;77.56;100539.25;5108145;22;21648;-77
2022/01/10 10:57:05;;;;;;;42.90;16.20;;;;;;;-1.08;77.83;100538.13;5117350;22;20382;-81
2022/01/10 10:59:36;;;;;;;45.30;17.80;;;;;;;-1.44;79.38;100537.13;5108260;22;20202;-78
2022/01/10 11:02:03;;;;;;;48.90;16.67;;;;;;;-1.53;79.95;100552.25;5108832;22;20246;-77
2022/01/10 11:04:34;;;;;;;40.63;16.07;;;;;;;-1.55;80.34;100545.38;5112947;22;20534;-79
2022/01/10 11:07:00;;;;;;;41.47;16.30;;;;;;;-1.40;79.88;100559.56;5126246;22;20263;-76
2022/01/10 11:09:28;;;;;;;39.83;15.73;;;;;;;-1.25;79.22;100550.22;5115185;22;20461;-79
2022/01/10 11:11:54;;;;;;;43.57;15.73;;;;;;;-0.70;76.79;100551.22;5088152;22;20460;-77
2022/01/10 11:14:22;;;;;;;38.53;15.30;;;;;;;-0.89;75.59;100560.78;5097150;22;20964;-80
2022/01/10 11:16:52;;;;;;;44.17;16.10;;;;;;;-0.91;76.32;100557.41;5145360;22;23010;-79
2022/01/10 11:19:21;;;;;;;41.17;16.10;;;;;;;-0.98;75.51;100572.50;5097709;22;20655;-78